createdAt,value
2018-09-18T00:01:40.306Z,4.67
2018-09-18T00:04:08.655Z,4.17
2018-09-18T00:06:36.218Z,4.83
2018-09-18T00:09:04.279Z,4.40
2018-09-18T00:11:31.840Z,4.30
2018-09-18T00:13:59.392Z,4.80
2018-09-18T00:16:26.982Z,5.07
2018-09-18T00:18:54.543Z,4.53
2018-09-18T00:21:22.103Z,5.50
2018-09-18T00:23:49.697Z,5.33
2018-09-18T00:26:17.267Z,5.90
2018-09-18T00:28:44.828Z,5.10
2018-09-18T00:31:12.410Z,4.70
2018-09-18T00:40:37.832Z,4.70
2018-09-18T00:43:06.208Z,4.70
2018-09-18T00:45:33.769Z,4.83
2018-09-18T00:48:01.330Z,5.00
2018-09-18T00:50:28.933Z,5.23
2018-09-18T00:52:56.493Z,4.90
2018-09-18T01:12:49.578Z,5.17
2018-09-18T01:15:18.072Z,4.73
2018-09-18T01:17:45.637Z,5.57
2018-09-18T01:20:13.229Z,5.67
2018-09-18T01:22:40.792Z,5.17
2018-09-18T01:25:08.354Z,5.67
2018-09-18T01:27:35.954Z,5.23
2018-09-18T01:30:04.279Z,5.00
2018-09-18T01:32:31.836Z,5.07
2018-09-18T01:34:59.421Z,4.77
2018-09-18T01:37:26.987Z,4.67
2018-09-18T01:39:54.839Z,5.60
2018-09-18T01:42:22.402Z,4.83
2018-09-18T01:44:49.961Z,6.43
2018-09-18T01:47:17.560Z,5.63
2018-09-18T01:49:45.216Z,5.23
2018-09-18T01:52:12.795Z,5.63
2018-09-18T01:54:40.901Z,5.37
2018-09-18T01:57:08.474Z,4.97
2018-09-18T01:59:36.094Z,6.00
2018-09-18T02:02:03.651Z,6.25
2018-09-18T02:04:31.214Z,5.80
2018-09-18T02:06:58.797Z,5.27
2018-09-18T02:09:26.351Z,5.40
2018-09-18T02:11:53.947Z,5.83
2018-09-18T02:14:21.506Z,5.97
2018-09-18T02:16:49.069Z,6.47
2018-09-18T02:19:16.660Z,7.93
2018-09-18T02:21:45.216Z,7.18
2018-09-18T02:24:12.838Z,6.40
2018-09-18T02:26:40.405Z,7.05
2018-09-18T02:29:07.980Z,5.80
2018-09-18T02:31:35.566Z,6.17
2018-09-18T02:34:03.126Z,5.73
2018-09-18T02:36:30.683Z,5.60
2018-09-18T02:38:58.270Z,5.90
2018-09-18T02:41:25.833Z,6.57
2018-09-18T02:43:54.204Z,5.63
2018-09-18T02:46:21.759Z,5.50
2018-09-18T02:48:49.325Z,5.87
2018-09-18T02:51:16.916Z,7.22
2018-09-18T02:53:44.480Z,6.50
2018-09-18T02:56:12.082Z,6.30
2018-09-18T02:58:39.640Z,5.80
2018-09-18T03:01:07.202Z,5.63
2018-09-18T03:03:34.788Z,5.73
2018-09-18T03:06:02.359Z,6.17
2018-09-18T03:08:30.017Z,6.07
2018-09-18T03:10:57.580Z,5.80
2018-09-18T03:13:25.129Z,5.40
2018-09-18T03:15:52.733Z,6.20
2018-09-18T03:18:21.532Z,7.25
2018-09-18T03:20:47.899Z,8.35
2018-09-18T03:23:15.455Z,8.93
2018-09-18T03:25:43.023Z,7.17
2018-09-18T03:28:10.590Z,7.37
2018-09-18T03:30:38.215Z,7.37
2018-09-18T03:33:05.779Z,7.55
2018-09-18T03:35:33.345Z,7.23
2018-09-18T03:38:00.926Z,6.10
2018-09-18T03:40:28.488Z,6.43
2018-09-18T03:42:56.090Z,5.90
2018-09-18T03:45:23.880Z,6.37
2018-09-18T03:47:51.442Z,5.73
2018-09-18T03:50:19.564Z,6.30
2018-09-18T03:52:47.120Z,6.73
2018-09-18T03:55:14.678Z,6.20
2018-09-18T03:57:42.273Z,7.62
2018-09-18T04:00:10.608Z,7.60
2018-09-18T04:02:38.532Z,7.82
2018-09-18T04:05:06.047Z,6.37
2018-09-18T04:07:33.605Z,6.37
2018-09-18T04:10:01.229Z,6.00
2018-09-18T04:12:28.790Z,6.27
2018-09-18T04:14:56.348Z,6.20
2018-09-18T04:17:23.968Z,6.20
2018-09-18T04:19:51.512Z,5.73
2018-09-18T04:22:19.082Z,6.17
2018-09-18T04:24:46.669Z,6.50
2018-09-18T04:27:14.234Z,5.40
2018-09-18T04:29:41.803Z,6.03
2018-09-18T04:32:09.839Z,6.47
2018-09-18T04:34:37.398Z,6.67
2018-09-18T04:37:04.966Z,8.30
2018-09-18T04:39:32.556Z,8.38
2018-09-18T04:42:00.890Z,7.17
2018-09-18T04:44:28.493Z,7.17
2018-09-18T04:46:56.060Z,6.93
2018-09-18T04:49:24.394Z,6.90
2018-09-18T04:51:52.033Z,6.77
2018-09-18T04:54:19.625Z,6.40
2018-09-18T04:56:47.178Z,6.50
2018-09-18T04:59:14.774Z,6.77
2018-09-18T05:01:42.338Z,6.30
2018-09-18T05:04:10.139Z,6.73
2018-09-18T05:06:37.747Z,6.43
2018-09-18T05:09:05.306Z,6.60
2018-09-18T05:11:32.865Z,6.23
2018-09-18T05:14:00.526Z,6.17
2018-09-18T05:16:28.036Z,6.70
2018-09-18T05:18:55.602Z,6.73
2018-09-18T05:21:23.250Z,6.77
2018-09-18T05:23:51.576Z,6.77
2018-09-18T05:26:19.138Z,6.80
2018-09-18T05:28:46.789Z,6.47
2018-09-18T05:31:14.338Z,6.67
2018-09-18T05:33:41.955Z,6.40
2018-09-18T05:36:09.590Z,6.27
2018-09-18T05:38:37.097Z,7.03
2018-09-18T05:41:04.904Z,7.40
2018-09-18T05:43:32.521Z,6.77
2018-09-18T05:46:00.854Z,6.77
2018-09-18T05:48:28.422Z,6.93
2018-09-18T05:50:56.013Z,6.93
2018-09-18T05:53:23.579Z,6.47
2018-09-18T05:55:51.957Z,6.23
2018-09-18T05:58:19.517Z,6.13
2018-09-18T06:00:47.347Z,6.53
2018-09-18T06:03:15.142Z,7.37
2018-09-18T06:05:42.703Z,7.75
2018-09-18T06:08:10.282Z,7.40
2018-09-18T06:10:38.672Z,8.15
2018-09-18T06:13:07.002Z,6.53
2018-09-18T06:15:34.558Z,7.33
2018-09-18T06:18:02.203Z,6.83
2018-09-18T06:20:29.767Z,6.77
2018-09-18T06:22:57.334Z,8.50
2018-09-18T06:25:25.421Z,7.30
2018-09-18T06:27:52.978Z,7.03
2018-09-18T06:30:20.545Z,6.97
2018-09-18T06:32:49.020Z,7.10
2018-09-18T06:35:16.594Z,7.87
2018-09-18T06:37:44.154Z,7.63
2018-09-18T06:40:11.805Z,7.63
2018-09-18T06:42:39.368Z,7.33
2018-09-18T06:45:06.929Z,7.43
2018-09-18T06:47:35.420Z,7.90
2018-09-18T06:50:02.983Z,8.43
2018-09-18T06:52:30.545Z,7.43
2018-09-18T06:54:58.973Z,8.60
2018-09-18T06:57:26.543Z,7.97
2018-09-18T06:59:54.109Z,7.73
2018-09-18T07:02:21.729Z,7.50
2018-09-18T07:04:49.287Z,7.23
2018-09-18T07:07:16.845Z,7.63
2018-09-18T07:09:44.459Z,9.18
2018-09-18T07:12:12.021Z,8.13
2018-09-18T07:14:39.587Z,7.57
2018-09-18T07:17:07.182Z,7.83
2018-09-18T07:19:34.748Z,8.97
2018-09-18T07:22:02.429Z,8.03
2018-09-18T07:24:29.988Z,8.43
2018-09-18T07:26:57.558Z,7.83
2018-09-18T07:29:26.542Z,8.20
2018-09-18T07:31:54.077Z,9.00
2018-09-18T07:34:21.644Z,8.27
2018-09-18T07:36:49.651Z,9.40
2018-09-18T07:39:17.985Z,8.70
2018-09-18T07:41:45.546Z,8.47
2018-09-18T07:44:14.033Z,8.20
2018-09-18T07:46:41.597Z,8.10
2018-09-18T07:49:09.154Z,7.43
2018-09-18T07:51:36.745Z,7.47
2018-09-18T07:54:04.307Z,8.37
2018-09-18T07:56:32.278Z,7.80
2018-09-18T07:58:59.846Z,8.00
2018-09-18T08:01:28.173Z,7.77
2018-09-18T08:03:56.459Z,8.93
2018-09-18T08:06:24.020Z,8.97
2018-09-18T08:08:51.582Z,9.23
2018-09-18T08:11:19.171Z,8.87
2018-09-18T08:13:46.737Z,9.07
2018-09-18T08:16:14.345Z,10.38
2018-09-18T08:18:42.236Z,8.80
2018-09-18T08:21:09.798Z,8.87
2018-09-18T08:23:38.096Z,8.90
2018-09-18T08:26:05.656Z,8.67
2018-09-18T08:28:33.218Z,8.53
2018-09-18T08:31:01.337Z,8.70
2018-09-18T08:33:28.911Z,8.88
2018-09-18T08:35:56.466Z,7.63
2018-09-18T08:38:24.462Z,8.03
2018-09-18T08:40:52.021Z,7.10
2018-09-18T08:43:19.592Z,7.10
2018-09-18T08:45:47.187Z,7.72
2018-09-18T08:48:15.529Z,6.97
2018-09-18T08:50:43.066Z,6.93
2018-09-18T08:53:11.108Z,7.03
2018-09-18T08:55:39.440Z,6.77
2018-09-18T08:58:07.773Z,6.27
2018-09-18T09:00:35.332Z,6.47
2018-09-18T09:03:03.659Z,6.10
2018-09-18T09:05:31.934Z,6.43
2018-09-18T09:07:59.602Z,6.00
2018-09-18T09:10:27.082Z,6.47
2018-09-18T09:12:55.028Z,6.07
2018-09-18T09:15:22.664Z,6.43
2018-09-18T09:17:50.136Z,6.53
2018-09-18T09:20:17.796Z,6.17
2018-09-18T09:22:45.409Z,6.27
2018-09-18T09:25:12.879Z,5.87
2018-09-18T09:27:41.503Z,6.47
2018-09-18T09:30:09.108Z,5.80
2018-09-18T09:32:36.593Z,6.90
2018-09-18T09:35:04.237Z,6.57
2018-09-18T09:37:31.792Z,6.40
2018-09-18T09:39:59.341Z,5.57
2018-09-18T09:42:27.311Z,6.25
2018-09-18T09:44:54.895Z,6.23
2018-09-18T09:47:22.423Z,6.23
2018-09-18T09:49:50.028Z,6.27
2018-09-18T09:52:17.582Z,6.77
2018-09-18T09:54:45.937Z,5.70
2018-09-18T09:57:13.509Z,4.90
2018-09-18T09:59:41.307Z,5.73
2018-09-18T10:02:08.864Z,6.20
2018-09-18T10:04:37.216Z,5.67
2018-09-18T10:07:04.772Z,5.57
2018-09-18T10:09:32.413Z,6.43
2018-09-18T10:11:59.954Z,5.50
2018-09-18T10:14:27.530Z,5.53
2018-09-18T10:16:55.915Z,5.90
2018-09-18T10:19:23.466Z,6.00
2018-09-18T10:21:51.260Z,5.67
2018-09-18T10:24:18.899Z,5.03
2018-09-18T10:26:46.576Z,5.60
2018-09-18T10:29:14.005Z,5.43
2018-09-18T10:31:41.593Z,5.60
2018-09-18T10:34:09.170Z,4.63
2018-09-18T10:36:36.751Z,4.80
2018-09-18T10:39:04.303Z,5.07
2018-09-18T10:41:32.018Z,5.27
2018-09-18T10:43:59.908Z,5.03
2018-09-18T10:46:27.468Z,5.63
2018-09-18T10:48:55.015Z,4.83
2018-09-18T10:51:22.977Z,5.17
2018-09-18T10:53:50.527Z,5.00
2018-09-18T10:56:18.071Z,4.83
2018-09-18T10:58:46.416Z,4.87
2018-09-18T11:01:13.972Z,4.13
2018-09-18T11:03:41.953Z,4.93
2018-09-18T11:06:09.498Z,4.93
2018-09-18T11:08:37.024Z,4.60
2018-09-18T11:11:04.696Z,4.53
2018-09-18T11:13:33.019Z,4.77
2018-09-18T11:16:00.583Z,5.13
2018-09-18T11:18:28.136Z,4.90
2018-09-18T11:20:55.733Z,4.63
2018-09-18T11:23:23.317Z,4.80
2018-09-18T11:25:50.850Z,4.63
2018-09-18T11:28:18.388Z,4.83
2018-09-18T11:30:46.078Z,4.80
2018-09-18T11:33:13.609Z,4.83
2018-09-18T11:35:41.150Z,4.40
2018-09-18T11:38:09.111Z,4.37
2018-09-18T11:40:36.664Z,4.73
2018-09-18T11:43:04.214Z,4.07
2018-09-18T11:45:31.872Z,4.23
2018-09-18T11:47:59.342Z,4.50
2018-09-18T11:50:26.979Z,4.20
2018-09-18T11:52:55.317Z,4.90
2018-09-18T11:55:22.874Z,3.93
2018-09-18T11:57:51.041Z,4.20
2018-09-18T12:00:18.590Z,4.33
2018-09-18T12:02:46.180Z,4.20
2018-09-18T12:05:13.966Z,4.30
2018-09-18T12:07:42.098Z,4.30
2018-09-18T12:10:09.658Z,3.50
2018-09-18T12:12:37.275Z,4.17
2018-09-18T12:15:04.845Z,4.20
2018-09-18T12:17:32.394Z,4.00
2018-09-18T12:20:01.235Z,3.63
2018-09-18T12:22:28.880Z,3.30
2018-09-18T12:24:56.335Z,3.30
2018-09-18T12:27:23.969Z,3.23
2018-09-18T12:29:52.285Z,3.47
2018-09-18T12:32:19.863Z,3.13
2018-09-18T12:34:47.870Z,3.50
2018-09-18T12:37:16.190Z,3.20
2018-09-18T12:39:43.750Z,3.30
2018-09-18T12:42:11.528Z,3.27
2018-09-18T12:44:38.891Z,3.17
2018-09-18T12:47:06.522Z,3.27
2018-09-18T12:49:34.196Z,2.90
2018-09-18T12:52:02.386Z,3.20
2018-09-18T12:54:30.269Z,2.73
2018-09-18T12:56:57.837Z,3.00
2018-09-18T12:59:25.395Z,3.30
2018-09-18T13:01:54.772Z,2.80
2018-09-18T13:04:22.322Z,3.03
2018-09-18T13:06:49.978Z,3.07
2018-09-18T13:09:17.484Z,2.90
2018-09-18T13:11:45.040Z,3.07
2018-09-18T13:14:12.674Z,3.07
2018-09-18T13:16:40.195Z,2.93
2018-09-18T13:19:07.745Z,3.00
2018-09-18T13:21:35.326Z,2.50
2018-09-18T13:24:04.170Z,3.03
2018-09-18T13:26:31.727Z,2.83
2018-09-18T13:28:59.287Z,3.47
2018-09-18T13:31:26.918Z,2.67
2018-09-18T13:33:55.231Z,3.00
2018-09-18T13:36:22.792Z,2.63
2018-09-18T13:38:52.497Z,3.07
2018-09-18T13:41:20.123Z,2.40
2018-09-18T13:43:47.594Z,3.17
2018-09-18T13:46:15.279Z,2.67
2018-09-18T13:48:43.555Z,2.73
2018-09-18T13:51:11.435Z,2.70
2018-09-18T13:53:39.040Z,2.67
2018-09-18T13:56:07.662Z,2.50
2018-09-18T13:58:35.155Z,2.70
2018-09-18T14:01:03.861Z,2.13
2018-09-18T14:03:31.367Z,2.70
2018-09-18T14:05:58.913Z,3.00
2018-09-18T14:08:26.624Z,2.63
2018-09-18T14:10:54.089Z,2.80
2018-09-18T14:13:21.651Z,2.70
2018-09-18T14:15:49.239Z,2.93
2018-09-18T14:18:17.559Z,2.47
2018-09-18T14:20:45.106Z,2.67
2018-09-18T14:23:12.978Z,2.70
2018-09-18T14:25:40.539Z,3.10
2018-09-18T14:28:08.118Z,2.50
2018-09-18T14:30:36.475Z,2.60
2018-09-18T14:33:04.025Z,2.80
2018-09-18T14:35:32.338Z,2.60
2018-09-18T14:38:01.009Z,2.63
2018-09-18T14:40:28.524Z,2.60
2018-09-18T14:42:56.038Z,2.00
2018-09-18T14:45:23.750Z,2.60
2018-09-18T14:47:52.054Z,2.60
2018-09-18T14:50:19.539Z,2.57
2018-09-18T14:52:47.137Z,2.67
2018-09-18T14:55:14.688Z,2.30
2018-09-18T14:57:42.239Z,2.67
2018-09-18T15:00:09.849Z,2.10
2018-09-18T15:02:37.363Z,1.50
2018-09-18T15:05:04.961Z,1.50
2018-09-18T15:07:32.516Z,1.40
2018-09-18T15:10:00.072Z,1.70
2018-09-18T15:12:27.674Z,1.20
2018-09-18T15:14:55.223Z,1.40
2018-09-18T15:17:23.541Z,1.50
2018-09-18T15:19:51.160Z,1.00
2018-09-18T15:22:19.479Z,1.40
2018-09-18T15:24:47.025Z,1.60
2018-09-18T15:27:14.641Z,1.43
2018-09-18T15:29:42.204Z,1.50
2018-09-18T15:32:09.829Z,1.27
2018-09-18T15:34:37.358Z,1.60
2018-09-18T15:37:04.918Z,1.50
2018-09-18T15:39:32.480Z,1.50
2018-09-18T15:42:00.842Z,1.70
2018-09-18T15:44:28.392Z,1.40
2018-09-18T15:46:55.947Z,1.67
2018-09-18T15:49:23.549Z,1.40
2018-09-18T15:51:51.158Z,1.30
2018-09-18T15:54:19.416Z,1.23
2018-09-18T15:56:47.695Z,1.47
2018-09-18T15:59:15.247Z,1.47
2018-09-18T16:01:42.857Z,1.40
2018-09-18T16:04:10.435Z,1.60
2018-09-18T16:06:37.992Z,1.40
2018-09-18T16:09:06.730Z,1.70
2018-09-18T16:11:34.280Z,1.67
2018-09-18T16:14:01.853Z,1.60
2018-09-18T16:16:30.056Z,2.03
2018-09-18T16:18:57.581Z,1.70
2018-09-18T16:21:25.132Z,1.70
2018-09-18T16:23:52.733Z,1.80
2018-09-18T16:26:20.285Z,1.10
2018-09-18T16:28:47.846Z,1.60
2018-09-18T16:31:15.897Z,1.63
2018-09-18T16:33:43.451Z,1.60
2018-09-18T16:36:11.003Z,1.60
2018-09-18T16:38:39.100Z,2.20
2018-09-18T16:41:06.651Z,1.83
2018-09-18T16:43:34.207Z,1.77
2018-09-18T16:46:01.810Z,1.50
2018-09-18T16:48:29.648Z,1.80
2018-09-18T16:50:57.943Z,1.90
2018-09-18T16:53:26.006Z,2.33
2018-09-18T16:55:53.566Z,2.40
2018-09-18T16:58:21.140Z,2.70
2018-09-18T17:00:48.776Z,2.93
2018-09-18T17:03:16.321Z,2.67
2018-09-18T17:05:43.921Z,3.43
2018-09-18T17:08:11.496Z,4.07
2018-09-18T17:10:39.082Z,4.53
2018-09-18T17:13:06.668Z,5.10
2018-09-18T17:15:34.213Z,6.10
2018-09-18T17:18:01.780Z,5.30
2018-09-18T17:20:29.414Z,5.62
2018-09-18T17:22:56.968Z,5.30
2018-09-18T17:25:24.519Z,4.83
2018-09-18T17:27:52.112Z,4.60
2018-09-18T17:30:20.441Z,4.23
2018-09-18T17:32:48.046Z,3.70
2018-09-18T17:35:16.368Z,3.73
2018-09-18T17:37:43.919Z,3.63
2018-09-18T17:40:12.331Z,3.20
2018-09-18T17:42:39.879Z,2.80
2018-09-18T17:45:07.437Z,3.00
2018-09-18T17:47:35.560Z,2.90
2018-09-18T17:50:03.127Z,2.67
2018-09-18T17:52:30.647Z,3.10
2018-09-18T17:54:58.281Z,3.57
2018-09-18T17:57:25.829Z,4.13
2018-09-18T17:59:53.390Z,4.40
2018-09-18T18:02:22.294Z,4.17
2018-09-18T18:04:49.844Z,4.90
2018-09-18T18:07:17.399Z,4.90
2018-09-18T18:09:46.431Z,4.47
2018-09-18T18:12:13.987Z,4.80
2018-09-18T18:14:41.538Z,5.10
2018-09-18T18:17:09.149Z,5.07
2018-09-18T18:19:36.703Z,4.90
2018-09-18T18:22:04.250Z,4.57
2018-09-18T18:24:31.858Z,5.80
2018-09-18T18:27:00.490Z,4.60
2018-09-18T18:29:28.060Z,4.57
2018-09-18T18:31:56.144Z,4.93
2018-09-18T18:34:23.696Z,4.20
2018-09-18T18:36:51.257Z,4.77
2018-09-18T18:39:18.940Z,4.20
2018-09-18T18:41:46.524Z,4.03
2018-09-18T18:44:14.079Z,4.53
2018-09-18T18:46:42.545Z,4.40
2018-09-18T18:49:10.121Z,4.20
2018-09-18T18:51:38.444Z,4.82
2018-09-18T18:54:07.574Z,4.50
2018-09-18T18:56:35.124Z,4.80
2018-09-18T18:59:02.713Z,4.72
2018-09-18T19:01:30.354Z,4.90
2018-09-18T19:03:57.879Z,4.10
2018-09-18T19:06:25.519Z,4.07
2018-09-18T19:08:53.041Z,4.70
2018-09-18T19:11:20.606Z,5.10
2018-09-18T19:13:48.160Z,4.70
2018-09-18T19:16:16.216Z,4.80
2018-09-18T19:18:45.076Z,4.47
2018-09-18T19:21:12.581Z,4.57
2018-09-18T19:23:40.300Z,5.30
2018-09-18T19:26:07.787Z,5.15
2018-09-18T19:28:36.067Z,4.30
2018-09-18T19:31:03.700Z,5.00
2018-09-18T19:33:31.346Z,5.03
2018-09-18T19:35:58.826Z,4.40
2018-09-18T19:38:26.469Z,4.87
2018-09-18T19:40:54.801Z,4.93
2018-09-18T19:43:22.408Z,4.97
2018-09-18T19:45:49.940Z,5.03
2018-09-18T19:48:17.581Z,4.50
2018-09-18T19:50:45.229Z,4.97
2018-09-18T19:53:12.792Z,4.50
2018-09-18T19:55:40.376Z,4.70
2018-09-18T19:58:08.435Z,4.53
2018-09-18T20:00:35.991Z,4.07
2018-09-18T20:03:03.586Z,5.07
2018-09-18T20:05:31.149Z,4.87
2018-09-18T20:07:58.710Z,4.63
2018-09-18T20:10:26.274Z,5.30
2018-09-18T20:12:54.733Z,4.83
2018-09-18T20:15:22.287Z,5.50
2018-09-18T20:17:49.836Z,4.80
2018-09-18T20:20:17.908Z,5.17
2018-09-18T20:22:45.469Z,5.27
2018-09-18T20:25:13.015Z,4.33
2018-09-18T20:27:40.626Z,4.53
2018-09-18T20:30:08.183Z,5.10
2018-09-18T20:32:35.731Z,4.47
2018-09-18T20:35:03.573Z,4.53
2018-09-18T20:37:31.122Z,4.33
2018-09-18T20:39:58.686Z,5.33
2018-09-18T20:42:26.387Z,5.37
2018-09-18T20:44:53.947Z,4.40
2018-09-18T20:47:21.499Z,4.83
2018-09-18T20:49:49.100Z,5.10
2018-09-18T20:52:16.666Z,5.40
2018-09-18T20:54:44.987Z,6.23
2018-09-18T20:57:12.572Z,5.77
2018-09-18T20:59:40.139Z,6.07
2018-09-18T21:02:08.183Z,6.30
2018-09-18T21:04:35.662Z,6.50
2018-09-18T21:07:03.222Z,5.53
2018-09-18T21:09:31.512Z,5.50
2018-09-18T21:11:59.067Z,6.17
2018-09-18T21:14:26.622Z,5.68
2018-09-18T21:16:54.261Z,5.03
2018-09-18T21:19:21.839Z,5.40
2018-09-18T21:21:49.376Z,5.30
2018-09-18T21:24:17.681Z,5.30
2018-09-18T21:26:45.235Z,5.37
2018-09-18T21:29:12.787Z,4.70
2018-09-18T21:31:40.879Z,5.30
2018-09-18T21:34:08.429Z,4.93
2018-09-18T21:36:35.983Z,5.30
2018-09-18T21:39:03.613Z,4.67
2018-09-18T21:41:31.160Z,5.27
2018-09-18T21:43:59.488Z,5.57
2018-09-18T21:46:27.069Z,5.10
2018-09-18T21:48:54.625Z,5.30
2018-09-18T21:51:22.182Z,4.43
2018-09-18T21:53:50.673Z,5.17
2018-09-18T21:56:18.234Z,5.33
2018-09-18T21:58:45.792Z,5.80
2018-09-18T22:01:13.405Z,5.50
2018-09-18T22:03:40.934Z,5.47
2018-09-18T22:06:08.498Z,6.20
2018-09-18T22:08:36.132Z,5.83
2018-09-18T22:11:03.678Z,5.97
2018-09-18T22:13:31.237Z,6.43
2018-09-18T22:15:58.843Z,5.80
2018-09-18T22:18:26.395Z,6.20
2018-09-18T22:20:53.952Z,6.07
2018-09-18T22:23:21.542Z,6.43
2018-09-18T22:25:49.105Z,6.80
2018-09-18T22:28:16.666Z,5.87
2018-09-18T22:30:44.257Z,6.10
2018-09-18T22:33:11.815Z,5.37
2018-09-18T22:35:39.368Z,5.83
2018-09-18T22:38:06.947Z,6.00
2018-09-18T22:40:34.499Z,5.10
2018-09-18T22:43:02.174Z,6.13
2018-09-18T22:45:30.465Z,5.67
2018-09-18T22:47:58.253Z,6.17
2018-09-18T22:50:25.847Z,5.87
2018-09-18T22:52:54.172Z,6.43
2018-09-18T22:55:21.721Z,5.47
2018-09-18T22:57:49.705Z,6.40
2018-09-18T23:00:17.265Z,5.80
2018-09-18T23:02:44.820Z,6.30
2018-09-18T23:05:12.400Z,6.87
2018-09-18T23:07:39.967Z,6.43
2018-09-18T23:10:07.600Z,6.53
2018-09-18T23:12:35.149Z,5.97
2018-09-18T23:15:02.706Z,6.50
2018-09-18T23:17:30.332Z,7.00
2018-09-18T23:19:57.890Z,6.60
2018-09-18T23:22:25.445Z,7.10
2018-09-18T23:24:53.040Z,7.93
2018-09-18T23:27:20.596Z,6.90
2018-09-18T23:29:48.915Z,6.83
2018-09-18T23:32:16.496Z,6.43
2018-09-18T23:34:44.063Z,6.73
2018-09-18T23:37:11.656Z,6.33
2018-09-18T23:39:39.987Z,6.53
2018-09-18T23:42:07.817Z,6.90
2018-09-18T23:44:35.372Z,6.60
2018-09-18T23:47:03.710Z,7.30
2018-09-18T23:49:31.251Z,6.50
2018-09-18T23:51:58.836Z,7.10
2018-09-18T23:54:26.396Z,7.10
2018-09-18T23:56:53.950Z,6.83
2018-09-18T23:59:21.552Z,7.27
